sensor_id;sensor_type;location;lat;lon;timestamp;pressure;altitude;pressure_sealevel;temperature;humidity
14295;BME280;7231;59.370;18.016;2024-01-25T00:02:04;99459.13;;;1.63;100.00
14295;BME280;7231;59.370;18.016;2024-01-25T00:04:32;99472.09;;;1.65;100.00
14295;BME280;7231;59.370;18.016;2024-01-25T00:07:00;99481.63;;;1.66;100.00
14295;BME280;7231;59.370;18.016;2024-01-25T00:09:30;99494.47;;;1.64;100.00
14295;BME280;7231;59.370;18.016;2024-01-25T00:11:58;99441.41;;;1.30;100.00
14295;BME280;7231;59.370;18.016;2024-01-25T00:14:26;99499.72;;;1.66;100.00
14295;BME280;7231;59.370;18.016;2024-01-25T00:16:54;99503.16;;;1.66;100.00
14295;BME280;7231;59.370;18.016;2024-01-25T00:19:22;99518.66;;;1.66;100.00
14295;BME280;7231;59.370;18.016;2024-01-25T00:21:49;99517.84;;;1.67;100.00
14295;BME280;7231;59.370;18.016;2024-01-25T00:24:18;99510.59;;;1.58;100.00
14295;BME280;7231;59.370;18.016;2024-01-25T00:26:47;99509.41;;;1.50;100.00
14295;BME280;7231;59.370;18.016;2024-01-25T00:29:15;99554.03;;;1.67;100.00
14295;BME280;7231;59.370;18.016;2024-01-25T00:31:43;99545.00;;;1.57;100.00
14295;BME280;7231;59.370;18.016;2024-01-25T00:34:12;99570.28;;;1.65;100.00
14295;BME280;7231;59.370;18.016;2024-01-25T00:36:41;99576.41;;;1.67;100.00
14295;BME280;7231;59.370;18.016;2024-01-25T00:39:10;99579.78;;;1.66;100.00
14295;BME280;7231;59.370;18.016;2024-01-25T00:41:38;99573.41;;;1.57;100.00
14295;BME280;7231;59.370;18.016;2024-01-25T00:44:10;99598.00;;;1.69;100.00
14295;BME280;7231;59.370;18.016;2024-01-25T00:46:39;99608.34;;;1.69;100.00
14295;BME280;7231;59.370;18.016;2024-01-25T00:49:07;99609.22;;;1.69;100.00
14295;BME280;7231;59.370;18.016;2024-01-25T00:51:36;99609.22;;;1.69;100.00
14295;BME280;7231;59.370;18.016;2024-01-25T00:54:05;99621.34;;;1.70;100.00
14295;BME280;7231;59.370;18.016;2024-01-25T00:56:33;99632.56;;;1.71;100.00
14295;BME280;7231;59.370;18.016;2024-01-25T00:59:02;99642.06;;;1.72;100.00
14295;BME280;7231;59.370;18.016;2024-01-25T01:01:32;99654.09;;;1.71;100.00
14295;BME280;7231;59.370;18.016;2024-01-25T01:04:01;99654.59;;;1.62;100.00
14295;BME280;7231;59.370;18.016;2024-01-25T01:06:30;99673.00;;;1.70;100.00
14295;BME280;7231;59.370;18.016;2024-01-25T01:08:59;99684.38;;;1.74;100.00
14295;BME280;7231;59.370;18.016;2024-01-25T01:11:27;99681.56;;;1.69;100.00
14295;BME280;7231;59.370;18.016;2024-01-25T01:13:55;99691.28;;;1.75;100.00
14295;BME280;7231;59.370;18.016;2024-01-25T01:16:23;99692.59;;;1.65;100.00
14295;BME280;7231;59.370;18.016;2024-01-25T01:18:53;99697.75;;;1.65;100.00
14295;BME280;7231;59.370;18.016;2024-01-25T01:21:21;99722.31;;;1.75;100.00
14295;BME280;7231;59.370;18.016;2024-01-25T01:23:51;99730.13;;;1.76;100.00
14295;BME280;7231;59.370;18.016;2024-01-25T01:26:19;99705.03;;;1.54;100.00
14295;BME280;7231;59.370;18.016;2024-01-25T01:28:48;99725.09;;;1.60;100.00
14295;BME280;7231;59.370;18.016;2024-01-25T01:31:16;99726.25;;;1.67;100.00
14295;BME280;7231;59.370;18.016;2024-01-25T01:33:44;99732.09;;;1.62;100.00
14295;BME280;7231;59.370;18.016;2024-01-25T01:36:14;99703.44;;;1.39;100.00
14295;BME280;7231;59.370;18.016;2024-01-25T01:38:42;99757.38;;;1.70;100.00
14295;BME280;7231;59.370;18.016;2024-01-25T01:41:10;99781.81;;;1.76;100.00
14295;BME280;7231;59.370;18.016;2024-01-25T01:43:39;99783.50;;;1.76;100.00
14295;BME280;7231;59.370;18.016;2024-01-25T01:46:10;99774.44;;;1.66;100.00
14295;BME280;7231;59.370;18.016;2024-01-25T01:48:39;99783.09;;;1.67;100.00
14295;BME280;7231;59.370;18.016;2024-01-25T01:51:08;99804.09;;;1.74;100.00
14295;BME280;7231;59.370;18.016;2024-01-25T01:53:39;99816.22;;;1.75;100.00
14295;BME280;7231;59.370;18.016;2024-01-25T01:56:08;99812.69;;;1.73;100.00
14295;BME280;7231;59.370;18.016;2024-01-25T01:58:38;99823.91;;;1.74;100.00
14295;BME280;7231;59.370;18.016;2024-01-25T02:01:07;99828.25;;;1.75;100.00
14295;BME280;7231;59.370;18.016;2024-01-25T02:03:35;99829.22;;;1.77;100.00
14295;BME280;7231;59.370;18.016;2024-01-25T02:06:03;99823.16;;;1.76;100.00
14295;BME280;7231;59.370;18.016;2024-01-25T02:08:32;99801.69;;;1.59;100.00
14295;BME280;7231;59.370;18.016;2024-01-25T02:11:02;99832.47;;;1.73;100.00
14295;BME280;7231;59.370;18.016;2024-01-25T02:13:30;99844.44;;;1.71;100.00
14295;BME280;7231;59.370;18.016;2024-01-25T02:15:59;99822.16;;;1.55;100.00
14295;BME280;7231;59.370;18.016;2024-01-25T02:18:28;99846.88;;;1.68;100.00
14295;BME280;7231;59.370;18.016;2024-01-25T02:20:57;99822.38;;;1.42;100.00
14295;BME280;7231;59.370;18.016;2024-01-25T02:23:27;99872.50;;;1.63;100.00
14295;BME280;7231;59.370;18.016;2024-01-25T02:25:55;99885.47;;;1.65;100.00
14295;BME280;7231;59.370;18.016;2024-01-25T02:28:24;99886.28;;;1.63;100.00
14295;BME280;7231;59.370;18.016;2024-01-25T02:30:52;99819.81;;;1.24;100.00
14295;BME280;7231;59.370;18.016;2024-01-25T02:33:20;99899.88;;;1.59;100.00
14295;BME280;7231;59.370;18.016;2024-01-25T02:35:49;99884.75;;;1.49;100.00
14295;BME280;7231;59.370;18.016;2024-01-25T02:38:17;99905.69;;;1.55;100.00
14295;BME280;7231;59.370;18.016;2024-01-25T02:40:46;99874.69;;;1.38;100.00
14295;BME280;7231;59.370;18.016;2024-01-25T02:43:14;99900.09;;;1.46;100.00
14295;BME280;7231;59.370;18.016;2024-01-25T02:45:42;99911.44;;;1.50;100.00
14295;BME280;7231;59.370;18.016;2024-01-25T02:48:11;99931.53;;;1.55;100.00
14295;BME280;7231;59.370;18.016;2024-01-25T02:50:39;99931.53;;;1.55;100.00
14295;BME280;7231;59.370;18.016;2024-01-25T02:53:07;99942.69;;;1.54;100.00
14295;BME280;7231;59.370;18.016;2024-01-25T02:55:36;99953.81;;;1.53;100.00
14295;BME280;7231;59.370;18.016;2024-01-25T02:58:05;99969.31;;;1.53;100.00
14295;BME280;7231;59.370;18.016;2024-01-25T03:00:33;99943.53;;;1.37;100.00
14295;BME280;7231;59.370;18.016;2024-01-25T03:03:02;99976.91;;;1.50;100.00
14295;BME280;7231;59.370;18.016;2024-01-25T03:05:30;99954.69;;;1.36;100.00
14295;BME280;7231;59.370;18.016;2024-01-25T03:07:58;99903.53;;;0.95;100.00
14295;BME280;7231;59.370;18.016;2024-01-25T03:10:27;99982.50;;;1.42;100.00
14295;BME280;7231;59.370;18.016;2024-01-25T03:12:55;100000.09;;;1.49;100.00
14295;BME280;7231;59.370;18.016;2024-01-25T03:15:24;100015.59;;;1.49;100.00
14295;BME280;7231;59.370;18.016;2024-01-25T03:17:53;100016.41;;;1.48;100.00
14295;BME280;7231;59.370;18.016;2024-01-25T03:20:21;100022.44;;;1.48;100.00
14295;BME280;7231;59.370;18.016;2024-01-25T03:22:49;100010.84;;;1.40;100.00
14295;BME280;7231;59.370;18.016;2024-01-25T03:25:17;99985.69;;;1.20;100.00
14295;BME280;7231;59.370;18.016;2024-01-25T03:27:45;100039.41;;;1.43;100.00
14295;BME280;7231;59.370;18.016;2024-01-25T03:30:14;100033.94;;;1.37;100.00
14295;BME280;7231;59.370;18.016;2024-01-25T03:32:46;100053.13;;;1.42;100.00
14295;BME280;7231;59.370;18.016;2024-01-25T03:35:14;100041.84;;;1.24;100.00
14295;BME280;7231;59.370;18.016;2024-01-25T03:37:43;100056.69;;;1.28;100.00
14295;BME280;7231;59.370;18.016;2024-01-25T03:40:11;100037.81;;;1.13;100.00
14295;BME280;7231;59.370;18.016;2024-01-25T03:42:39;100041.06;;;1.09;100.00
14295;BME280;7231;59.370;18.016;2024-01-25T03:45:10;100095.59;;;1.31;100.00
14295;BME280;7231;59.370;18.016;2024-01-25T03:47:38;100103.25;;;1.29;100.00
14295;BME280;7231;59.370;18.016;2024-01-25T03:50:09;100110.03;;;1.27;100.00
14295;BME280;7231;59.370;18.016;2024-01-25T03:52:37;100117.53;;;1.23;100.00
14295;BME280;7231;59.370;18.016;2024-01-25T03:55:06;100109.31;;;1.14;100.00
14295;BME280;7231;59.370;18.016;2024-01-25T03:57:35;100125.94;;;1.19;100.00
14295;BME280;7231;59.370;18.016;2024-01-25T04:00:03;100121.06;;;1.09;100.00
14295;BME280;7231;59.370;18.016;2024-01-25T04:02:32;100130.03;;;0.99;100.00
14295;BME280;7231;59.370;18.016;2024-01-25T04:05:00;100147.44;;;1.03;100.00
14295;BME280;7231;59.370;18.016;2024-01-25T04:07:30;100162.84;;;1.02;100.00
14295;BME280;7231;59.370;18.016;2024-01-25T04:09:59;100178.25;;;1.00;100.00
14295;BME280;7231;59.370;18.016;2024-01-25T04:12:27;100169.63;;;1.00;100.00
14295;BME280;7231;59.370;18.016;2024-01-25T04:14:55;100129.56;;;0.75;100.00
14295;BME280;7231;59.370;18.016;2024-01-25T04:17:23;100168.22;;;0.90;100.00
14295;BME280;7231;59.370;18.016;2024-01-25T04:19:51;100183.34;;;0.98;100.00
14295;BME280;7231;59.370;18.016;2024-01-25T04:22:20;100172.50;;;0.89;100.00
14295;BME280;7231;59.370;18.016;2024-01-25T04:24:49;100184.94;;;0.96;100.00
14295;BME280;7231;59.370;18.016;2024-01-25T04:27:18;100204.16;;;1.02;100.00
14295;BME280;7231;59.370;18.016;2024-01-25T04:29:46;100205.94;;;1.03;100.00
14295;BME280;7231;59.370;18.016;2024-01-25T04:32:14;100224.16;;;1.06;100.00
14295;BME280;7231;59.370;18.016;2024-01-25T04:34:43;100221.50;;;1.04;100.00
14295;BME280;7231;59.370;18.016;2024-01-25T04:37:13;100199.03;;;0.87;100.00
14295;BME280;7231;59.370;18.016;2024-01-25T04:39:41;100224.16;;;1.06;100.00
14295;BME280;7231;59.370;18.016;2024-01-25T04:42:11;100219.47;;;0.98;100.00
14295;BME280;7231;59.370;18.016;2024-01-25T04:44:39;100237.72;;;1.02;100.00
14295;BME280;7231;59.370;18.016;2024-01-25T04:47:08;100234.16;;;1.00;100.00
14295;BME280;7231;59.370;18.016;2024-01-25T04:49:36;100221.28;;;0.85;100.00
14295;BME280;7231;59.370;18.016;2024-01-25T04:52:05;100268.84;;;1.05;100.00
14295;BME280;7231;59.370;18.016;2024-01-25T04:54:33;100277.59;;;1.07;100.00
14295;BME280;7231;59.370;18.016;2024-01-25T04:57:02;100249.13;;;0.90;100.00
14295;BME280;7231;59.370;18.016;2024-01-25T04:59:34;100282.66;;;1.05;100.00
14295;BME280;7231;59.370;18.016;2024-01-25T05:02:02;100290.41;;;1.05;100.00
14295;BME280;7231;59.370;18.016;2024-01-25T05:04:31;100286.41;;;0.95;100.00
14295;BME280;7231;59.370;18.016;2024-01-25T05:07:00;100295.66;;;1.07;100.00
14295;BME280;7231;59.370;18.016;2024-01-25T05:09:28;100312.13;;;1.09;100.00
14295;BME280;7231;59.370;18.016;2024-01-25T05:11:56;100310.44;;;1.09;100.00
14295;BME280;7231;59.370;18.016;2024-01-25T05:14:25;100312.75;;;1.05;100.00
14295;BME280;7231;59.370;18.016;2024-01-25T05:16:55;100326.47;;;1.04;100.00
14295;BME280;7231;59.370;18.016;2024-01-25T05:19:23;100335.88;;;1.03;100.00
14295;BME280;7231;59.370;18.016;2024-01-25T05:21:52;100341.75;;;1.01;100.00
14295;BME280;7231;59.370;18.016;2024-01-25T05:24:20;100340.44;;;0.92;100.00
14295;BME280;7231;59.370;18.016;2024-01-25T05:26:48;100276.63;;;0.60;100.00
14295;BME280;7231;59.370;18.016;2024-01-25T05:29:16;100351.13;;;0.98;100.00
14295;BME280;7231;59.370;18.016;2024-01-25T05:31:44;100363.22;;;1.00;100.00
14295;BME280;7231;59.370;18.016;2024-01-25T05:34:14;100360.63;;;1.00;100.00
14295;BME280;7231;59.370;18.016;2024-01-25T05:36:42;100371.69;;;0.97;100.00
14295;BME280;7231;59.370;18.016;2024-01-25T05:39:11;100367.41;;;0.97;100.00
14295;BME280;7231;59.370;18.016;2024-01-25T05:41:39;100389.66;;;0.95;100.00
14295;BME280;7231;59.370;18.016;2024-01-25T05:44:07;100307.41;;;0.43;100.00
14295;BME280;7231;59.370;18.016;2024-01-25T05:46:37;100409.69;;;1.00;100.00
14295;BME280;7231;59.370;18.016;2024-01-25T05:49:05;100343.00;;;0.63;100.00
14295;BME280;7231;59.370;18.016;2024-01-25T05:51:35;100404.34;;;0.96;100.00
14295;BME280;7231;59.370;18.016;2024-01-25T05:54:03;100412.09;;;0.96;100.00
14295;BME280;7231;59.370;18.016;2024-01-25T05:56:32;100426.78;;;0.97;100.00
14295;BME280;7231;59.370;18.016;2024-01-25T05:59:00;100418.84;;;0.94;100.00
14295;BME280;7231;59.370;18.016;2024-01-25T06:01:28;100429.16;;;0.94;100.00
14295;BME280;7231;59.370;18.016;2024-01-25T06:03:57;100433.34;;;0.92;100.00
14295;BME280;7231;59.370;18.016;2024-01-25T06:06:25;100446.06;;;0.89;100.00
14295;BME280;7231;59.370;18.016;2024-01-25T06:08:54;100452.66;;;0.84;100.00
14295;BME280;7231;59.370;18.016;2024-01-25T06:11:37;100454.94;;;0.80;100.00
14295;BME280;7231;59.370;18.016;2024-01-25T06:14:05;100465.88;;;0.76;100.00
14295;BME280;7231;59.370;18.016;2024-01-25T06:16:33;100490.91;;;0.77;100.00
14295;BME280;7231;59.370;18.016;2024-01-25T06:19:02;100478.31;;;0.68;100.00
14295;BME280;7231;59.370;18.016;2024-01-25T06:21:31;100458.72;;;0.57;100.00
14295;BME280;7231;59.370;18.016;2024-01-25T06:24:02;100493.56;;;0.78;100.00
14295;BME280;7231;59.370;18.016;2024-01-25T06:26:31;100501.41;;;0.80;100.00
14295;BME280;7231;59.370;18.016;2024-01-25T06:28:59;100509.25;;;0.81;100.00
14295;BME280;7231;59.370;18.016;2024-01-25T06:31:27;100510.13;;;0.82;100.00
14295;BME280;7231;59.370;18.016;2024-01-25T06:33:56;100524.72;;;0.81;100.00
14295;BME280;7231;59.370;18.016;2024-01-25T06:36:24;100522.25;;;0.83;100.00
14295;BME280;7231;59.370;18.016;2024-01-25T06:38:53;100514.03;;;0.75;100.00
14295;BME280;7231;59.370;18.016;2024-01-25T06:41:22;100542.78;;;0.81;100.00
14295;BME280;7231;59.370;18.016;2024-01-25T06:43:51;100535.75;;;0.79;100.00
14295;BME280;7231;59.370;18.016;2024-01-25T06:46:19;100548.56;;;0.77;100.00
14295;BME280;7231;59.370;18.016;2024-01-25T06:48:49;100563.94;;;0.76;100.00
14295;BME280;7231;59.370;18.016;2024-01-25T06:51:18;100559.91;;;0.66;100.00
14295;BME280;7231;59.370;18.016;2024-01-25T06:53:46;100549.00;;;0.57;100.00
14295;BME280;7231;59.370;18.016;2024-01-25T06:56:15;100578.25;;;0.71;100.00
14295;BME280;7231;59.370;18.016;2024-01-25T06:58:45;100583.50;;;0.72;100.00
14295;BME280;7231;59.370;18.016;2024-01-25T07:01:20;100597.19;;;0.71;100.00
14295;BME280;7231;59.370;18.016;2024-01-25T07:03:49;100578.19;;;0.56;100.00
14295;BME280;7231;59.370;18.016;2024-01-25T07:06:18;100610.09;;;0.71;100.00
14295;BME280;7231;59.370;18.016;2024-01-25T07:08:47;100612.78;;;0.73;100.00
14295;BME280;7231;59.370;18.016;2024-01-25T07:11:16;100595.72;;;0.61;100.00
14295;BME280;7231;59.370;18.016;2024-01-25T07:13:46;100619.03;;;0.76;100.00
14295;BME280;7231;59.370;18.016;2024-01-25T07:16:14;100544.47;;;0.26;100.00
14295;BME280;7231;59.370;18.016;2024-01-25T07:18:42;100640.47;;;0.75;100.00
14295;BME280;7231;59.370;18.016;2024-01-25T07:21:11;100644.84;;;0.76;100.00
14295;BME280;7231;59.370;18.016;2024-01-25T07:23:39;100648.41;;;0.78;100.00
14295;BME280;7231;59.370;18.016;2024-01-25T07:26:07;100610.31;;;0.48;100.00
14295;BME280;7231;59.370;18.016;2024-01-25T07:28:35;100649.91;;;0.61;100.00
14295;BME280;7231;59.370;18.016;2024-01-25T07:31:04;100684.13;;;0.72;100.00
14295;BME280;7231;59.370;18.016;2024-01-25T07:33:32;100671.44;;;0.62;100.00
14295;BME280;7231;59.370;18.016;2024-01-25T07:36:00;100683.94;;;0.69;100.00
14295;BME280;7231;59.370;18.016;2024-01-25T07:38:28;100698.53;;;0.69;100.00
14295;BME280;7231;59.370;18.016;2024-01-25T07:40:56;100705.38;;;0.68;100.00
14295;BME280;7231;59.370;18.016;2024-01-25T07:43:24;100709.94;;;0.72;100.00
14295;BME280;7231;59.370;18.016;2024-01-25T07:45:53;100725.53;;;0.74;100.00
14295;BME280;7231;59.370;18.016;2024-01-25T07:48:22;100727.31;;;0.75;100.00
14295;BME280;7231;59.370;18.016;2024-01-25T07:50:50;100728.22;;;0.75;100.00
14295;BME280;7231;59.370;18.016;2024-01-25T07:53:19;100739.44;;;0.76;100.00
14295;BME280;7231;59.370;18.016;2024-01-25T07:55:47;100718.09;;;0.65;100.00
14295;BME280;7231;59.370;18.016;2024-01-25T07:58:15;100748.06;;;0.76;100.00
14295;BME280;7231;59.370;18.016;2024-01-25T08:00:43;100744.69;;;0.77;100.00
14295;BME280;7231;59.370;18.016;2024-01-25T08:03:14;100763.75;;;0.79;100.00
14295;BME280;7231;59.370;18.016;2024-01-25T08:05:44;100761.97;;;0.78;100.00
14295;BME280;7231;59.370;18.016;2024-01-25T08:08:17;100781.72;;;0.78;100.00
14295;BME280;7231;59.370;18.016;2024-01-25T08:10:45;100774.56;;;0.74;100.00
14295;BME280;7231;59.370;18.016;2024-01-25T08:13:13;100788.44;;;0.76;100.00
14295;BME280;7231;59.370;18.016;2024-01-25T08:15:42;100721.22;;;0.35;100.00
14295;BME280;7231;59.370;18.016;2024-01-25T08:18:10;100805.03;;;0.79;100.00
14295;BME280;7231;59.370;18.016;2024-01-25T08:20:38;100810.28;;;0.81;100.00
14295;BME280;7231;59.370;18.016;2024-01-25T08:23:08;100826.56;;;0.80;100.00
14295;BME280;7231;59.370;18.016;2024-01-25T08:25:36;100776.09;;;0.45;100.00
14295;BME280;7231;59.370;18.016;2024-01-25T08:28:05;100807.88;;;0.57;100.00
14295;BME280;7231;59.370;18.016;2024-01-25T08:30:33;100823.66;;;0.62;100.00
14295;BME280;7231;59.370;18.016;2024-01-25T08:33:04;100865.97;;;0.77;100.00
14295;BME280;7231;59.370;18.016;2024-01-25T08:35:32;100864.41;;;0.79;100.00
14295;BME280;7231;59.370;18.016;2024-01-25T08:38:01;100862.03;;;0.82;100.00
14295;BME280;7231;59.370;18.016;2024-01-25T08:40:30;100865.59;;;0.84;100.00
14295;BME280;7231;59.370;18.016;2024-01-25T08:42:59;100853.97;;;0.78;100.00
14295;BME280;7231;59.370;18.016;2024-01-25T08:45:27;100732.84;;;0.03;100.00
14295;BME280;7231;59.370;18.016;2024-01-25T08:47:55;100829.50;;;0.59;100.00
14295;BME280;7231;59.370;18.016;2024-01-25T08:50:24;100865.88;;;0.76;100.00
14295;BME280;7231;59.370;18.016;2024-01-25T08:52:53;100864.19;;;0.76;100.00
14295;BME280;7231;59.370;18.016;2024-01-25T08:55:21;100898.78;;;0.91;100.00
14295;BME280;7231;59.370;18.016;2024-01-25T08:57:51;100897.78;;;0.89;100.00
14295;BME280;7231;59.370;18.016;2024-01-25T09:00:19;100902.16;;;0.90;100.00
14295;BME280;7231;59.370;18.016;2024-01-25T09:02:47;100904.41;;;0.86;100.00
14295;BME280;7231;59.370;18.016;2024-01-25T09:05:16;100905.09;;;0.83;100.00
14295;BME280;7231;59.370;18.016;2024-01-25T09:07:45;100909.06;;;0.78;100.00
14295;BME280;7231;59.370;18.016;2024-01-25T09:10:14;100912.22;;;0.74;100.00
14295;BME280;7231;59.370;18.016;2024-01-25T09:12:42;100922.75;;;0.77;100.00
14295;BME280;7231;59.370;18.016;2024-01-25T09:15:12;100921.97;;;0.78;100.00
14295;BME280;7231;59.370;18.016;2024-01-25T09:17:40;100934.88;;;0.78;100.00
14295;BME280;7231;59.370;18.016;2024-01-25T09:20:09;100935.88;;;0.80;100.00
14295;BME280;7231;59.370;18.016;2024-01-25T09:22:38;100943.28;;;0.76;100.00
14295;BME280;7231;59.370;18.016;2024-01-25T09:25:06;100942.97;;;0.71;100.00
14295;BME280;7231;59.370;18.016;2024-01-25T09:27:36;100943.78;;;0.70;100.00
14295;BME280;7231;59.370;18.016;2024-01-25T09:30:06;100960.16;;;0.71;100.00
14295;BME280;7231;59.370;18.016;2024-01-25T09:32:36;100857.22;;;0.12;100.00
14295;BME280;7231;59.370;18.016;2024-01-25T09:35:05;100959.25;;;0.70;100.00
14295;BME280;7231;59.370;18.016;2024-01-25T09:37:35;100954.00;;;0.69;100.00
14295;BME280;7231;59.370;18.016;2024-01-25T09:40:04;100970.00;;;0.76;100.00
14295;BME280;7231;59.370;18.016;2024-01-25T09:42:34;100977.84;;;0.78;100.00
14295;BME280;7231;59.370;18.016;2024-01-25T09:45:06;100990.06;;;0.80;100.00
14295;BME280;7231;59.370;18.016;2024-01-25T09:47:36;100996.03;;;0.79;100.00
14295;BME280;7231;59.370;18.016;2024-01-25T09:50:05;100983.47;;;0.72;100.00
14295;BME280;7231;59.370;18.016;2024-01-25T09:52:35;101002.19;;;0.81;100.00
14295;BME280;7231;59.370;18.016;2024-01-25T09:55:06;100996.22;;;0.82;100.00
14295;BME280;7231;59.370;18.016;2024-01-25T09:57:36;101004.56;;;0.78;100.00
14295;BME280;7231;59.370;18.016;2024-01-25T10:00:05;101019.34;;;0.81;100.00
14295;BME280;7231;59.370;18.016;2024-01-25T10:02:40;101015.78;;;0.79;100.00
14295;BME280;7231;59.370;18.016;2024-01-25T10:05:08;101026.00;;;0.77;100.00
14295;BME280;7231;59.370;18.016;2024-01-25T10:07:38;101023.19;;;0.74;100.00
14295;BME280;7231;59.370;18.016;2024-01-25T10:10:07;101030.03;;;0.74;100.00
14295;BME280;7231;59.370;18.016;2024-01-25T10:12:37;101036.19;;;0.76;100.00
14295;BME280;7231;59.370;18.016;2024-01-25T10:15:06;101044.06;;;0.77;100.00
14295;BME280;7231;59.370;18.016;2024-01-25T10:17:34;101044.16;;;0.79;100.00
14295;BME280;7231;59.370;18.016;2024-01-25T10:20:26;101046.06;;;0.81;100.00
14295;BME280;7231;59.370;18.016;2024-01-25T10:22:58;101055.50;;;0.81;100.00
14295;BME280;7231;59.370;18.016;2024-01-25T10:25:28;101071.75;;;0.80;100.00
14295;BME280;7231;59.370;18.016;2024-01-25T10:27:57;101071.66;;;0.78;100.00
14295;BME280;7231;59.370;18.016;2024-01-25T10:30:25;101073.44;;;0.79;100.00
14295;BME280;7231;59.370;18.016;2024-01-25T10:32:55;101086.56;;;0.82;100.00
14295;BME280;7231;59.370;18.016;2024-01-25T10:35:26;101077.25;;;0.84;100.00
14295;BME280;7231;59.370;18.016;2024-01-25T10:37:55;101089.78;;;0.91;100.00
14295;BME280;7231;59.370;18.016;2024-01-25T10:40:24;101090.00;;;0.94;100.00
14295;BME280;7231;59.370;18.016;2024-01-25T10:42:52;101098.44;;;0.92;100.00
14295;BME280;7231;59.370;18.016;2024-01-25T10:45:20;101093.41;;;0.82;100.00
14295;BME280;7231;59.370;18.016;2024-01-25T10:47:49;101099.25;;;0.79;100.00
14295;BME280;7231;59.370;18.016;2024-01-25T10:50:18;101113.38;;;0.84;100.00
14295;BME280;7231;59.370;18.016;2024-01-25T10:52:48;101062.06;;;0.52;100.00
14295;BME280;7231;59.370;18.016;2024-01-25T10:55:17;101108.00;;;0.81;100.00
14295;BME280;7231;59.370;18.016;2024-01-25T10:57:46;101040.66;;;0.42;100.00
14295;BME280;7231;59.370;18.016;2024-01-25T11:00:15;101115.66;;;0.80;100.00
14295;BME280;7231;59.370;18.016;2024-01-25T11:02:45;101109.03;;;0.72;100.00
14295;BME280;7231;59.370;18.016;2024-01-25T11:05:15;101123.97;;;0.76;100.00
14295;BME280;7231;59.370;18.016;2024-01-25T11:07:48;101127.31;;;0.75;100.00
14295;BME280;7231;59.370;18.016;2024-01-25T11:10:19;101079.47;;;0.43;100.00
14295;BME280;7231;59.370;18.016;2024-01-25T11:12:49;101139.91;;;0.70;100.00
14295;BME280;7231;59.370;18.016;2024-01-25T11:15:22;101152.91;;;0.72;100.00
14295;BME280;7231;59.370;18.016;2024-01-25T11:17:51;101162.56;;;0.74;100.00
14295;BME280;7231;59.370;18.016;2024-01-25T11:20:21;101123.09;;;0.52;100.00
14295;BME280;7231;59.370;18.016;2024-01-25T11:22:56;101161.78;;;0.75;100.00
14295;BME280;7231;59.370;18.016;2024-01-25T11:25:27;101182.31;;;0.74;100.00
14295;BME280;7231;59.370;18.016;2024-01-25T11:27:57;101187.34;;;0.72;100.00
14295;BME280;7231;59.370;18.016;2024-01-25T11:30:26;101192.41;;;0.71;100.00
14295;BME280;7231;59.370;18.016;2024-01-25T11:32:54;101189.59;;;0.68;100.00
14295;BME280;7231;59.370;18.016;2024-01-25T11:35:23;101191.06;;;0.64;100.00
14295;BME280;7231;59.370;18.016;2024-01-25T11:37:53;101180.41;;;0.59;100.00
14295;BME280;7231;59.370;18.016;2024-01-25T11:40:22;101203.63;;;0.59;100.00
14295;BME280;7231;59.370;18.016;2024-01-25T11:42:50;101210.38;;;0.57;100.00
14295;BME280;7231;59.370;18.016;2024-01-25T11:45:18;101208.47;;;0.55;100.00
14295;BME280;7231;59.370;18.016;2024-01-25T11:47:47;101215.28;;;0.54;100.00
14295;BME280;7231;59.370;18.016;2024-01-25T11:50:15;101219.56;;;0.54;100.00
14295;BME280;7231;59.370;18.016;2024-01-25T11:52:43;101226.28;;;0.52;100.00
14295;BME280;7231;59.370;18.016;2024-01-25T11:55:12;101215.97;;;0.52;100.00
14295;BME280;7231;59.370;18.016;2024-01-25T11:57:41;101232.13;;;0.49;100.00
14295;BME280;7231;59.370;18.016;2024-01-25T12:00:13;101225.84;;;0.46;100.00
14295;BME280;7231;59.370;18.016;2024-01-25T12:02:42;101228.19;;;0.43;100.00
14295;BME280;7231;59.370;18.016;2024-01-25T12:05:11;101210.13;;;0.31;100.00
14295;BME280;7231;59.370;18.016;2024-01-25T12:07:40;101238.63;;;0.44;100.00
14295;BME280;7231;59.370;18.016;2024-01-25T12:10:15;101244.44;;;0.42;100.00
14295;BME280;7231;59.370;18.016;2024-01-25T12:12:48;101243.78;;;0.44;100.00
14295;BME280;7231;59.370;18.016;2024-01-25T12:15:16;101234.69;;;0.38;100.00
14295;BME280;7231;59.370;18.016;2024-01-25T12:17:44;101260.16;;;0.45;100.00
14295;BME280;7231;59.370;18.016;2024-01-25T12:20:13;101255.31;;;0.38;100.00
14295;BME280;7231;59.370;18.016;2024-01-25T12:22:41;101274.28;;;0.50;100.00
14295;BME280;7231;59.370;18.016;2024-01-25T12:25:11;101282.81;;;0.49;100.00
14295;BME280;7231;59.370;18.016;2024-01-25T12:27:40;101284.38;;;0.47;100.00
14295;BME280;7231;59.370;18.016;2024-01-25T12:30:11;101291.00;;;0.43;100.00
14295;BME280;7231;59.370;18.016;2024-01-25T12:32:40;101266.50;;;0.26;100.00
14295;BME280;7231;59.370;18.016;2024-01-25T12:35:09;101298.63;;;0.42;100.00
14295;BME280;7231;59.370;18.016;2024-01-25T12:37:37;101285.16;;;0.34;100.00
14295;BME280;7231;59.370;18.016;2024-01-25T12:40:06;101301.19;;;0.42;100.00
14295;BME280;7231;59.370;18.016;2024-01-25T12:42:35;101304.44;;;0.39;100.00
14295;BME280;7231;59.370;18.016;2024-01-25T12:45:04;101216.44;;;-0.11;100.00
14295;BME280;7231;59.370;18.016;2024-01-25T12:47:35;101300.19;;;0.40;100.00
14295;BME280;7231;59.370;18.016;2024-01-25T12:50:04;101291.75;;;0.30;100.00
14295;BME280;7231;59.370;18.016;2024-01-25T12:52:32;101313.97;;;0.40;100.00
14295;BME280;7231;59.370;18.016;2024-01-25T12:55:00;101305.47;;;0.41;100.00
14295;BME280;7231;59.370;18.016;2024-01-25T12:57:30;101290.41;;;0.36;100.00
14295;BME280;7231;59.370;18.016;2024-01-25T12:59:59;101305.03;;;0.47;100.00
14295;BME280;7231;59.370;18.016;2024-01-25T13:02:28;101305.13;;;0.48;100.00